createdAt,value
2022-12-13T00:01:27.385Z,1.40
2022-12-13T00:03:55.970Z,1.55
2022-12-13T00:06:23.277Z,1.70
2022-12-13T00:08:50.580Z,1.58
2022-12-13T00:11:18.280Z,1.50
2022-12-13T00:13:48.236Z,1.98
2022-12-13T00:16:24.371Z,1.70
2022-12-13T00:18:55.566Z,1.92
2022-12-13T00:21:26.000Z,1.63
2022-12-13T00:23:53.304Z,1.92
2022-12-13T00:26:23.658Z,1.70
2022-12-13T00:28:51.473Z,1.90
2022-12-13T00:34:07.259Z,1.88
2022-12-13T00:36:34.538Z,1.40
2022-12-13T00:39:01.979Z,1.80
2022-12-13T00:41:35.305Z,1.88
2022-12-13T00:44:03.443Z,1.83
2022-12-13T00:46:30.941Z,1.88
2022-12-13T00:49:00.038Z,1.63
2022-12-13T00:51:28.603Z,1.58
2022-12-13T00:53:55.918Z,1.70
2022-12-13T00:56:25.786Z,1.67
2022-12-13T00:58:53.400Z,1.60
2022-12-13T01:01:23.175Z,1.63
2022-12-13T01:03:50.874Z,1.50
2022-12-13T01:06:21.454Z,2.10
2022-12-13T01:08:49.170Z,1.65
2022-12-13T01:11:16.936Z,2.03
2022-12-13T01:13:44.715Z,2.10
2022-12-13T01:16:12.902Z,1.80
2022-12-13T01:18:41.028Z,1.95
2022-12-13T01:21:17.658Z,1.80
2022-12-13T01:23:45.315Z,2.33
2022-12-13T01:26:15.050Z,1.67
2022-12-13T01:28:42.381Z,1.75
2022-12-13T01:31:15.279Z,1.90
2022-12-13T01:33:43.052Z,1.90
2022-12-13T01:36:14.273Z,1.65
2022-12-13T01:38:41.646Z,1.92
2022-12-13T01:41:17.885Z,1.88
2022-12-13T01:43:47.018Z,2.03
2022-12-13T01:46:16.530Z,2.22
2022-12-13T01:49:04.226Z,1.98
2022-12-13T01:51:46.639Z,1.65
2022-12-13T01:54:21.208Z,1.80
2022-12-13T01:57:00.795Z,2.10
2022-12-13T01:59:28.819Z,2.00
2022-12-13T02:02:00.895Z,2.10
2022-12-13T02:04:43.669Z,2.00
2022-12-13T02:07:23.084Z,1.70
2022-12-13T02:09:56.935Z,1.88
2022-12-13T02:12:30.092Z,1.97
2022-12-13T02:15:01.186Z,1.30
2022-12-13T02:17:59.214Z,2.38
2022-12-13T02:20:52.210Z,1.80
2022-12-13T02:23:19.473Z,1.90
2022-12-13T02:26:15.159Z,2.00
2022-12-13T02:28:48.082Z,1.80
2022-12-13T02:31:43.623Z,1.50
2022-12-13T02:34:18.514Z,2.50
2022-12-13T02:37:17.806Z,1.80
2022-12-13T02:39:51.724Z,2.08
2022-12-13T02:42:25.539Z,2.00
2022-12-13T02:45:00.212Z,2.00
2022-12-13T02:47:29.346Z,1.80
2022-12-13T02:50:02.424Z,1.90
2022-12-13T02:52:31.929Z,1.67
2022-12-13T02:54:59.732Z,1.90
2022-12-13T02:57:38.494Z,1.90
2022-12-13T03:00:24.889Z,1.98
2022-12-13T03:03:11.464Z,2.20
2022-12-13T03:06:33.769Z,2.00
2022-12-13T03:09:30.887Z,2.00
2022-12-13T03:12:16.608Z,1.73
2022-12-13T03:15:24.612Z,1.88
2022-12-13T03:17:59.842Z,1.80
2022-12-13T03:20:28.926Z,1.90
2022-12-13T03:22:56.791Z,2.13
2022-12-13T03:25:31.527Z,2.20
2022-12-13T03:28:02.036Z,2.10
2022-12-13T03:30:30.072Z,2.30
2022-12-13T03:32:56.997Z,2.20
2022-12-13T03:35:25.083Z,2.00
2022-12-13T03:38:02.119Z,1.67
2022-12-13T03:40:30.276Z,2.30
2022-12-13T03:42:57.781Z,2.60
2022-12-13T03:45:25.245Z,1.90
2022-12-13T03:47:52.571Z,2.03
2022-12-13T03:50:26.435Z,2.10
2022-12-13T03:53:01.924Z,1.90
2022-12-13T03:57:56.794Z,2.00
2022-12-13T04:00:24.091Z,2.28
2022-12-13T04:02:51.403Z,2.10
2022-12-13T04:05:18.978Z,2.45
2022-12-13T04:07:48.155Z,2.40
2022-12-13T04:10:26.276Z,2.17
2022-12-13T04:13:13.055Z,2.20
2022-12-13T04:15:40.422Z,2.00
2022-12-13T04:18:07.759Z,2.92
2022-12-13T04:20:35.034Z,2.40
2022-12-13T04:23:09.790Z,2.08
2022-12-13T04:25:37.997Z,2.22
2022-12-13T04:28:05.248Z,2.33
2022-12-13T04:30:32.694Z,3.08
2022-12-13T04:33:00.001Z,2.40
2022-12-13T04:35:27.086Z,5.80
2022-12-13T04:37:54.358Z,2.60
2022-12-13T04:40:22.113Z,2.10
2022-12-13T04:42:54.028Z,2.70
2022-12-13T04:45:22.980Z,2.45
2022-12-13T04:47:50.281Z,3.25
2022-12-13T04:50:17.589Z,3.40
2022-12-13T04:52:45.069Z,5.75
2022-12-13T04:55:12.804Z,2.88
2022-12-13T04:57:40.715Z,3.25
2022-12-13T05:00:11.093Z,2.65
2022-12-13T05:02:38.463Z,3.00
2022-12-13T05:05:05.740Z,2.42
2022-12-13T05:07:33.029Z,2.80
2022-12-13T05:10:00.299Z,1.95
2022-12-13T05:12:27.596Z,2.22
2022-12-13T05:14:54.879Z,2.20
2022-12-13T05:17:22.406Z,2.20
2022-12-13T05:19:49.389Z,4.20
2022-12-13T05:22:20.386Z,2.67
2022-12-13T05:24:48.377Z,2.38
2022-12-13T05:27:23.903Z,2.35
2022-12-13T05:30:03.788Z,2.80
2022-12-13T05:32:43.391Z,2.83
2022-12-13T05:35:22.290Z,2.58
2022-12-13T05:37:53.783Z,2.92
2022-12-13T05:40:22.482Z,2.10
2022-12-13T05:42:49.711Z,1.88
2022-12-13T05:45:18.659Z,2.45
2022-12-13T05:47:46.526Z,2.08
2022-12-13T05:50:15.533Z,2.20
2022-12-13T05:52:46.197Z,2.45
2022-12-13T05:55:14.170Z,3.05
2022-12-13T05:57:41.379Z,2.40
2022-12-13T06:00:29.249Z,2.40
2022-12-13T06:03:00.467Z,2.60
2022-12-13T06:05:28.904Z,2.40
2022-12-13T06:07:57.496Z,2.30
2022-12-13T06:10:34.162Z,2.42
2022-12-13T06:13:21.184Z,2.30
2022-12-13T06:16:00.984Z,2.22
2022-12-13T06:18:29.423Z,2.25
2022-12-13T06:21:00.471Z,2.47
2022-12-13T06:23:27.948Z,2.03
2022-12-13T06:25:55.293Z,2.55
2022-12-13T06:28:22.715Z,3.20
2022-12-13T06:30:53.451Z,2.53
2022-12-13T06:33:23.498Z,2.72
2022-12-13T06:35:52.706Z,2.78
2022-12-13T06:38:31.020Z,3.20
2022-12-13T06:41:10.253Z,2.45
2022-12-13T06:43:37.551Z,2.20
2022-12-13T06:46:05.770Z,2.92
2022-12-13T06:48:33.190Z,2.65
2022-12-13T06:51:01.784Z,2.53
2022-12-13T06:53:29.049Z,2.78
2022-12-13T06:55:56.533Z,2.72
2022-12-13T06:58:24.455Z,2.90
2022-12-13T07:01:00.996Z,2.80
2022-12-13T07:03:29.786Z,2.85
2022-12-13T07:05:58.525Z,2.92
2022-12-13T07:08:26.236Z,3.03
2022-12-13T07:10:55.308Z,3.17
2022-12-13T07:13:22.968Z,2.40
2022-12-13T07:15:51.260Z,2.83
2022-12-13T07:18:18.298Z,2.50
2022-12-13T07:20:45.702Z,2.97
2022-12-13T07:23:12.712Z,2.65
2022-12-13T07:25:40.013Z,2.40
2022-12-13T07:28:09.053Z,2.97
2022-12-13T07:30:41.461Z,2.40
2022-12-13T07:33:09.522Z,2.90
2022-12-13T07:35:37.800Z,2.42
2022-12-13T07:38:08.778Z,2.80
2022-12-13T07:40:37.466Z,2.85
2022-12-13T07:43:05.181Z,3.05
2022-12-13T07:45:32.876Z,2.60
2022-12-13T07:48:04.215Z,2.70
2022-12-13T07:50:36.990Z,2.28
2022-12-13T07:53:08.662Z,2.72
2022-12-13T07:55:36.859Z,3.00
2022-12-13T07:58:11.929Z,2.83
2022-12-13T08:00:40.294Z,3.05
2022-12-13T08:03:18.399Z,2.30
2022-12-13T08:09:40.394Z,3.03
2022-12-13T08:12:07.707Z,2.35
2022-12-13T08:14:34.977Z,2.50
2022-12-13T08:17:02.033Z,2.78
2022-12-13T08:19:28.890Z,2.65
2022-12-13T08:21:58.240Z,2.50
2022-12-13T08:24:29.897Z,2.17
2022-12-13T08:27:01.575Z,2.03
2022-12-13T08:29:34.737Z,2.20
2022-12-13T08:32:07.848Z,2.38
2022-12-13T08:34:34.781Z,2.47
2022-12-13T08:37:03.530Z,2.67
2022-12-13T08:39:35.617Z,2.72
2022-12-13T08:42:14.726Z,2.58
2022-12-13T08:44:45.172Z,2.28
2022-12-13T08:47:12.056Z,2.92
2022-12-13T08:49:49.648Z,2.92
2022-12-13T08:52:16.560Z,2.67
2022-12-13T08:54:44.849Z,3.00
2022-12-13T08:57:13.003Z,2.65
2022-12-13T08:59:40.453Z,3.17
2022-12-13T09:02:10.000Z,2.38
2022-12-13T09:04:37.290Z,3.25
2022-12-13T09:07:04.526Z,3.08
2022-12-13T09:09:31.476Z,2.90
2022-12-13T09:11:59.597Z,2.65
2022-12-13T09:14:33.566Z,2.75
2022-12-13T09:17:03.487Z,3.10
2022-12-13T09:19:37.047Z,2.70
2022-12-13T09:22:05.584Z,2.72
2022-12-13T09:24:36.503Z,2.78
2022-12-13T09:27:09.459Z,2.60
2022-12-13T09:29:37.810Z,2.75
2022-12-13T09:32:05.429Z,2.33
2022-12-13T09:34:35.461Z,3.05
2022-12-13T09:37:02.380Z,2.90
2022-12-13T09:39:29.822Z,3.92
2022-12-13T09:42:01.480Z,2.53
2022-12-13T09:44:46.639Z,3.35
2022-12-13T09:47:29.049Z,4.18
2022-12-13T09:50:07.510Z,3.53
2022-12-13T09:58:57.330Z,3.78
2022-12-13T10:01:24.502Z,3.40
2022-12-13T10:03:54.663Z,3.03
2022-12-13T10:06:24.234Z,2.90
2022-12-13T10:08:58.924Z,3.05
2022-12-13T10:11:32.448Z,3.92
2022-12-13T10:14:06.112Z,3.28
2022-12-13T10:16:37.074Z,3.05
2022-12-13T10:19:29.317Z,3.28
2022-12-13T10:22:01.960Z,4.10
2022-12-13T10:24:49.902Z,3.72
2022-12-13T10:27:29.193Z,3.97
2022-12-13T10:30:13.339Z,4.38
2022-12-13T10:32:55.188Z,3.42
2022-12-13T10:35:34.713Z,4.30
2022-12-13T10:38:21.441Z,3.92
2022-12-13T10:40:49.295Z,3.83
2022-12-13T10:43:17.448Z,3.53
2022-12-13T10:45:58.437Z,3.58
2022-12-13T10:48:38.759Z,3.60
2022-12-13T10:51:12.197Z,3.30
2022-12-13T10:53:47.517Z,4.38
2022-12-13T10:56:22.974Z,2.85
2022-12-13T10:59:13.284Z,2.90
2022-12-13T11:01:42.286Z,3.40
2022-12-13T11:04:29.856Z,3.22
2022-12-13T11:06:58.920Z,2.53
2022-12-13T11:09:38.742Z,2.45
2022-12-13T11:12:14.924Z,2.55
2022-12-13T11:15:06.611Z,2.90
2022-12-13T11:21:30.244Z,2.70
2022-12-13T11:24:01.840Z,2.90
2022-12-13T11:26:31.254Z,3.20
2022-12-13T11:33:00.579Z,3.00
2022-12-13T11:35:35.003Z,3.13
2022-12-13T11:38:28.702Z,3.67
2022-12-13T11:41:11.184Z,2.60
2022-12-13T11:43:41.698Z,2.70
2022-12-13T11:46:19.188Z,3.75
2022-12-13T11:48:53.178Z,3.05
2022-12-13T11:51:31.395Z,3.47
2022-12-13T11:54:04.886Z,3.42
2022-12-13T11:56:38.931Z,2.60
2022-12-13T11:59:29.664Z,2.95
2022-12-13T12:02:16.363Z,3.50
2022-12-13T12:05:00.369Z,3.42
2022-12-13T12:07:33.203Z,2.65
2022-12-13T12:10:29.213Z,2.63
2022-12-13T12:13:04.820Z,2.65
2022-12-13T12:15:42.152Z,2.65
2022-12-13T12:18:15.904Z,2.97
2022-12-13T12:21:00.019Z,2.30
2022-12-13T12:24:06.593Z,2.15
2022-12-13T12:26:56.665Z,2.22
2022-12-13T12:29:50.758Z,2.45
2022-12-13T12:32:23.695Z,2.42
2022-12-13T12:35:17.458Z,1.90
2022-12-13T12:37:56.079Z,1.77
2022-12-13T12:43:40.878Z,1.60
2022-12-13T12:46:25.548Z,1.80
2022-12-13T12:49:09.881Z,1.83
2022-12-13T12:51:37.565Z,1.60
2022-12-13T12:54:19.289Z,1.70
2022-12-13T12:57:14.109Z,2.25
2022-12-13T13:00:02.331Z,1.95
2022-12-13T13:02:43.411Z,1.80
2022-12-13T13:05:23.828Z,2.33
2022-12-13T13:07:59.557Z,1.73
2022-12-13T13:10:27.519Z,1.70
2022-12-13T13:13:11.400Z,2.55
2022-12-13T13:15:39.713Z,1.60
2022-12-13T13:18:45.759Z,1.70
2022-12-13T13:21:30.649Z,2.03
2022-12-13T13:27:07.486Z,2.10
2022-12-13T13:29:36.528Z,1.85
2022-12-13T13:32:12.303Z,1.70
2022-12-13T13:34:42.442Z,2.15
2022-12-13T13:37:22.997Z,2.10
2022-12-13T13:39:55.766Z,2.10
2022-12-13T13:42:30.758Z,2.08
2022-12-13T13:45:20.495Z,2.10
2022-12-13T13:48:26.178Z,2.10
2022-12-13T13:51:30.321Z,2.28
2022-12-13T13:54:16.120Z,2.00
2022-12-13T13:57:33.206Z,2.05
2022-12-13T14:00:17.437Z,2.78
2022-12-13T14:02:58.720Z,2.75
2022-12-13T14:05:53.580Z,2.47
2022-12-13T14:08:44.224Z,2.40
2022-12-13T14:11:55.264Z,2.47
2022-12-13T14:14:43.342Z,1.95
2022-12-13T14:17:48.343Z,3.10
2022-12-13T14:20:54.017Z,2.88
2022-12-13T14:23:27.229Z,3.38
2022-12-13T14:26:00.182Z,3.47
2022-12-13T14:28:44.702Z,3.63
2022-12-13T14:31:34.819Z,4.93
2022-12-13T14:34:03.144Z,3.50
2022-12-13T14:36:35.318Z,3.55
2022-12-13T14:39:25.170Z,3.13
2022-12-13T14:41:56.495Z,3.40
2022-12-13T14:44:27.530Z,3.30
2022-12-13T14:47:03.361Z,3.08
2022-12-13T14:49:33.351Z,2.60
2022-12-13T14:52:26.467Z,3.55
2022-12-13T14:54:59.877Z,2.30
2022-12-13T14:57:29.057Z,2.38
2022-12-13T14:59:58.078Z,2.22
2022-12-13T15:02:33.329Z,2.65
2022-12-13T15:05:02.872Z,2.33
2022-12-13T15:07:44.032Z,2.80
2022-12-13T15:10:28.025Z,3.20
2022-12-13T15:12:55.598Z,2.50
2022-12-13T15:15:33.843Z,2.80
2022-12-13T15:18:20.255Z,2.55
2022-12-13T15:20:49.985Z,2.78
2022-12-13T15:23:19.951Z,2.35
2022-12-13T15:25:50.114Z,3.80
2022-12-13T15:28:21.623Z,3.40
2022-12-13T15:30:49.398Z,2.97
2022-12-13T15:33:16.779Z,2.58
2022-12-13T15:35:48.024Z,4.28
2022-12-13T15:38:28.532Z,3.05
2022-12-13T15:40:56.791Z,2.28
2022-12-13T15:43:42.528Z,3.60
2022-12-13T15:46:10.269Z,3.67
2022-12-13T15:48:41.501Z,3.30
2022-12-13T15:51:30.054Z,5.05
2022-12-13T15:54:18.414Z,4.22
2022-12-13T15:57:01.372Z,4.25
2022-12-13T15:59:34.235Z,5.22
2022-12-13T16:02:02.484Z,11.80
2022-12-13T16:04:32.919Z,7.57
2022-12-13T16:07:01.348Z,6.78
2022-12-13T16:09:34.990Z,14.65
2022-12-13T16:12:07.131Z,5.73
2022-12-13T16:14:49.429Z,6.07
2022-12-13T16:17:24.635Z,6.10
2022-12-13T16:19:56.342Z,5.35
2022-12-13T16:22:24.293Z,5.55
2022-12-13T16:24:52.885Z,5.32
2022-12-13T16:27:19.883Z,5.53
2022-12-13T16:29:47.232Z,4.35
2022-12-13T16:32:14.630Z,6.38
2022-12-13T16:34:41.938Z,4.78
2022-12-13T16:37:26.559Z,4.60
2022-12-13T16:39:54.604Z,5.18
2022-12-13T16:42:26.408Z,5.32
2022-12-13T16:45:17.749Z,5.38
2022-12-13T16:47:48.522Z,4.88
2022-12-13T16:50:19.167Z,4.68
2022-12-13T16:52:46.408Z,5.45
2022-12-13T16:55:13.713Z,5.85
2022-12-13T16:57:41.156Z,5.10
2022-12-13T17:00:11.299Z,4.75
2022-12-13T17:02:38.716Z,4.97
2022-12-13T17:05:06.490Z,5.68
2022-12-13T17:07:35.596Z,4.82
2022-12-13T17:10:02.973Z,5.82
2022-12-13T17:12:30.357Z,5.57
2022-12-13T17:14:57.671Z,4.97
2022-12-13T17:17:25.100Z,5.00
2022-12-13T17:19:52.560Z,5.18
2022-12-13T17:22:20.055Z,6.32
2022-12-13T17:24:47.485Z,4.95
2022-12-13T17:27:14.899Z,4.28
2022-12-13T17:29:42.644Z,5.35
2022-12-13T17:32:09.989Z,4.82
2022-12-13T17:34:37.547Z,5.18
2022-12-13T17:37:10.142Z,5.15
2022-12-13T17:39:38.070Z,4.88
2022-12-13T17:42:05.182Z,4.57
2022-12-13T17:44:32.528Z,5.32
2022-12-13T17:46:59.904Z,4.40
2022-12-13T17:49:27.205Z,5.18
2022-12-13T17:51:54.818Z,4.70
2022-12-13T17:54:23.966Z,4.70
2022-12-13T17:56:51.633Z,5.38
2022-12-13T17:59:19.375Z,5.30
2022-12-13T18:01:47.172Z,4.97
2022-12-13T18:04:14.579Z,5.10
2022-12-13T18:06:41.863Z,4.63
2022-12-13T18:09:10.914Z,5.00
2022-12-13T18:11:38.556Z,4.72
2022-12-13T18:14:07.387Z,4.93
2022-12-13T18:16:38.997Z,4.88
2022-12-13T18:19:10.788Z,5.40
2022-12-13T18:21:38.200Z,5.03
2022-12-13T18:24:06.728Z,5.95
2022-12-13T18:26:34.326Z,5.28
2022-12-13T18:29:01.730Z,7.32
2022-12-13T18:31:29.089Z,6.45
2022-12-13T18:33:56.533Z,5.93
2022-12-13T18:36:25.331Z,6.32
2022-12-13T18:38:53.039Z,5.95
2022-12-13T18:41:25.298Z,5.85
2022-12-13T18:43:59.629Z,6.03
2022-12-13T18:48:54.886Z,6.72
2022-12-13T18:51:22.231Z,6.38
2022-12-13T18:53:49.553Z,6.78
2022-12-13T18:56:19.118Z,7.03
2022-12-13T18:58:48.343Z,7.10
2022-12-13T19:01:16.355Z,7.45
2022-12-13T19:03:48.126Z,5.95
2022-12-13T19:06:26.048Z,9.23
2022-12-13T19:08:56.930Z,7.97
2022-12-13T19:11:26.655Z,8.18
2022-12-13T19:13:54.496Z,7.50
2022-12-13T19:16:23.457Z,7.60
2022-12-13T19:18:50.892Z,7.30
2022-12-13T19:21:20.451Z,7.25
2022-12-13T19:23:54.987Z,7.25
2022-12-13T19:26:24.029Z,7.07
2022-12-13T19:28:51.388Z,7.00
2022-12-13T19:31:18.759Z,8.15
2022-12-13T19:33:46.560Z,8.30
2022-12-13T19:36:13.948Z,9.20
2022-12-13T19:38:42.005Z,8.73
2022-12-13T19:41:10.646Z,8.85
2022-12-13T19:43:37.986Z,8.30
2022-12-13T19:46:05.562Z,8.55
2022-12-13T19:48:33.060Z,7.90
2022-12-13T19:51:01.722Z,7.25
2022-12-13T19:53:30.360Z,6.85
2022-12-13T19:55:58.259Z,7.50
2022-12-13T19:58:26.071Z,7.95
2022-12-13T20:00:53.731Z,6.70
2022-12-13T20:03:21.360Z,6.97
2022-12-13T20:05:57.992Z,7.05
2022-12-13T20:08:25.656Z,8.05
2022-12-13T20:11:07.032Z,7.47
2022-12-13T20:13:34.743Z,7.35
2022-12-13T20:16:02.574Z,5.43
2022-12-13T20:18:29.905Z,7.15
2022-12-13T20:21:13.041Z,7.50
2022-12-13T20:23:41.258Z,6.25
2022-12-13T20:26:11.678Z,7.47
2022-12-13T20:28:39.295Z,8.23
2022-12-13T20:31:11.399Z,6.45
2022-12-13T20:33:39.217Z,7.65
2022-12-13T20:36:26.117Z,6.53
2022-12-13T20:38:56.130Z,7.28
2022-12-13T20:41:25.143Z,6.75
2022-12-13T20:43:54.259Z,6.68
2022-12-13T20:46:22.319Z,6.78
2022-12-13T20:48:50.852Z,6.05
2022-12-13T20:51:20.451Z,9.02
2022-12-13T20:53:49.096Z,7.00
2022-12-13T20:56:18.701Z,5.97
2022-12-13T20:58:46.160Z,6.35
2022-12-13T21:01:21.156Z,6.07
2022-12-13T21:03:48.381Z,6.60
2022-12-13T21:06:15.944Z,6.78
2022-12-13T21:08:51.654Z,7.07
2022-12-13T21:11:26.843Z,6.03
2022-12-13T21:14:15.143Z,6.10
2022-12-13T21:16:48.305Z,6.25
2022-12-13T21:19:22.858Z,6.43
2022-12-13T21:24:19.104Z,6.55
2022-12-13T21:26:46.973Z,6.53
2022-12-13T21:29:16.131Z,6.63
2022-12-13T21:31:48.705Z,7.40
2022-12-13T21:34:16.981Z,7.05
2022-12-13T21:36:46.220Z,6.70
2022-12-13T21:39:18.842Z,7.72
2022-12-13T21:41:46.312Z,8.68
2022-12-13T21:44:17.217Z,6.70
2022-12-13T21:47:11.393Z,7.00
2022-12-13T21:49:31.782Z,7.03
2022-12-13T21:51:58.683Z,7.88
2022-12-13T21:54:25.561Z,7.15
2022-12-13T21:57:11.333Z,7.35
2022-12-13T21:59:38.598Z,6.75
2022-12-13T22:02:26.098Z,6.45
2022-12-13T22:04:55.445Z,7.32
2022-12-13T22:07:26.466Z,7.50
2022-12-13T22:09:54.415Z,8.50
2022-12-13T22:12:38.095Z,8.38
2022-12-13T22:15:07.382Z,8.23
2022-12-13T22:17:36.317Z,7.68
2022-12-13T22:20:09.405Z,7.30
2022-12-13T22:22:39.007Z,8.32
2022-12-13T22:25:06.777Z,7.53
2022-12-13T22:27:34.286Z,7.43
2022-12-13T22:30:01.196Z,7.38
2022-12-13T22:32:30.057Z,8.30
2022-12-13T22:34:57.013Z,6.72
2022-12-13T22:37:24.968Z,7.65
2022-12-13T22:39:52.419Z,7.72
2022-12-13T22:42:19.941Z,7.68
2022-12-13T22:44:47.768Z,5.97
2022-12-13T22:47:14.991Z,7.22
2022-12-13T22:49:42.255Z,7.43
2022-12-13T22:52:09.725Z,6.80
2022-12-13T22:54:36.990Z,7.50
2022-12-13T22:57:04.529Z,7.22
2022-12-13T22:59:31.864Z,7.10
2022-12-13T23:02:02.751Z,7.28
2022-12-13T23:04:31.914Z,7.72
2022-12-13T23:06:59.329Z,7.10
2022-12-13T23:09:26.221Z,6.97
2022-12-13T23:12:11.942Z,8.82
2022-12-13T23:14:39.247Z,8.20
2022-12-13T23:17:06.873Z,7.25
2022-12-13T23:19:50.865Z,6.25
2022-12-13T23:22:22.536Z,7.05
2022-12-13T23:24:50.127Z,5.93
2022-12-13T23:27:17.841Z,6.28
2022-12-13T23:29:45.070Z,6.25
2022-12-13T23:32:12.828Z,6.60
2022-12-13T23:34:40.060Z,7.50
2022-12-13T23:37:07.362Z,6.93
2022-12-13T23:39:34.262Z,6.25
2022-12-13T23:42:01.569Z,6.78
2022-12-13T23:44:28.829Z,5.75
2022-12-13T23:46:56.052Z,5.95
2022-12-13T23:49:23.298Z,6.78
2022-12-13T23:51:50.572Z,5.60
2022-12-13T23:54:19.656Z,5.55
2022-12-13T23:56:47.349Z,5.43
2022-12-13T23:59:14.616Z,5.45
